sensor_id;sensor_type;location;lat;lon;timestamp;temperature;humidity
11387;DHT22;5748;53.102;8.456;2023-05-27T03:01:07;11.60;45.50
11387;DHT22;5748;53.102;8.456;2023-05-27T03:03:34;11.60;44.90
11387;DHT22;5748;53.102;8.456;2023-05-27T03:06:01;11.60;45.00
11387;DHT22;5748;53.102;8.456;2023-05-27T03:08:28;11.50;45.00
11387;DHT22;5748;53.102;8.456;2023-05-27T03:10:56;11.50;45.00
11387;DHT22;5748;53.102;8.456;2023-05-27T03:13:23;11.50;45.20
11387;DHT22;5748;53.102;8.456;2023-05-27T03:15:49;11.50;45.20
11387;DHT22;5748;53.102;8.456;2023-05-27T03:18:18;11.50;44.90
11387;DHT22;5748;53.102;8.456;2023-05-27T03:20:45;11.80;46.30
11387;DHT22;5748;53.102;8.456;2023-05-27T03:23:11;11.40;45.20
11387;DHT22;5748;53.102;8.456;2023-05-27T03:25:38;12.60;46.20
11387;DHT22;5748;53.102;8.456;2023-05-27T03:28:06;11.40;45.30
11387;DHT22;5748;53.102;8.456;2023-05-27T03:30:33;12.50;46.30
11387;DHT22;5748;53.102;8.456;2023-05-27T03:33:01;13.20;46.90
11387;DHT22;5748;53.102;8.456;2023-05-27T03:35:30;11.40;45.40
11387;DHT22;5748;53.102;8.456;2023-05-27T03:37:56;11.40;45.40
11387;DHT22;5748;53.102;8.456;2023-05-27T03:40:23;11.40;45.40
11387;DHT22;5748;53.102;8.456;2023-05-27T03:42:50;12.10;46.00
11387;DHT22;5748;53.102;8.456;2023-05-27T03:45:18;12.90;46.70
11387;DHT22;5748;53.102;8.456;2023-05-27T03:47:45;11.30;45.40
11387;DHT22;5748;53.102;8.456;2023-05-27T03:50:12;11.70;45.70
11387;DHT22;5748;53.102;8.456;2023-05-27T03:52:40;11.30;45.40
11387;DHT22;5748;53.102;8.456;2023-05-27T03:55:08;11.30;45.10
11387;DHT22;5748;53.102;8.456;2023-05-27T03:57:36;11.20;45.50
11387;DHT22;5748;53.102;8.456;2023-05-27T04:00:03;11.30;45.50
11387;DHT22;5748;53.102;8.456;2023-05-27T04:02:33;11.30;45.70
11387;DHT22;5748;53.102;8.456;2023-05-27T04:05:00;11.30;45.70
11387;DHT22;5748;53.102;8.456;2023-05-27T04:07:27;11.30;45.70
11387;DHT22;5748;53.102;8.456;2023-05-27T04:09:55;11.40;45.90
11387;DHT22;5748;53.102;8.456;2023-05-27T04:12:22;12.10;46.60
11387;DHT22;5748;53.102;8.456;2023-05-27T04:14:49;11.30;45.90
11387;DHT22;5748;53.102;8.456;2023-05-27T04:17:16;11.40;46.10
11387;DHT22;5748;53.102;8.456;2023-05-27T04:19:43;11.30;46.20
11387;DHT22;5748;53.102;8.456;2023-05-27T04:22:14;11.30;46.10
11387;DHT22;5748;53.102;8.456;2023-05-27T04:24:41;11.30;46.10
11387;DHT22;5748;53.102;8.456;2023-05-27T04:27:10;11.30;46.20
11387;DHT22;5748;53.102;8.456;2023-05-27T04:29:38;11.30;46.30
11387;DHT22;5748;53.102;8.456;2023-05-27T04:32:06;11.40;46.40
11387;DHT22;5748;53.102;8.456;2023-05-27T04:34:33;11.40;46.50
11387;DHT22;5748;53.102;8.456;2023-05-27T04:37:00;11.40;46.60
11387;DHT22;5748;53.102;8.456;2023-05-27T04:39:27;11.40;46.60
11387;DHT22;5748;53.102;8.456;2023-05-27T04:41:54;11.40;46.70
11387;DHT22;5748;53.102;8.456;2023-05-27T04:44:23;11.50;46.90
11387;DHT22;5748;53.102;8.456;2023-05-27T04:46:52;11.50;47.10
11387;DHT22;5748;53.102;8.456;2023-05-27T04:49:19;11.60;47.30
11387;DHT22;5748;53.102;8.456;2023-05-27T04:51:47;11.60;47.60
11387;DHT22;5748;53.102;8.456;2023-05-27T04:54:14;14.20;50.00
11387;DHT22;5748;53.102;8.456;2023-05-27T04:56:41;11.70;48.00
11387;DHT22;5748;53.102;8.456;2023-05-27T04:59:09;11.70;48.30
11387;DHT22;5748;53.102;8.456;2023-05-27T05:01:43;11.80;48.90
11387;DHT22;5748;53.102;8.456;2023-05-27T05:04:35;12.60;49.80
11387;DHT22;5748;53.102;8.456;2023-05-27T05:07:02;12.00;49.00
11387;DHT22;5748;53.102;8.456;2023-05-27T05:09:29;12.10;49.00
11387;DHT22;5748;53.102;8.456;2023-05-27T05:11:56;12.10;49.10
11387;DHT22;5748;53.102;8.456;2023-05-27T05:14:23;12.60;49.70
11387;DHT22;5748;53.102;8.456;2023-05-27T05:16:51;12.30;49.70
11387;DHT22;5748;53.102;8.456;2023-05-27T05:19:18;13.10;50.30
11387;DHT22;5748;53.102;8.456;2023-05-27T05:21:45;12.60;49.80
11387;DHT22;5748;53.102;8.456;2023-05-27T05:24:12;12.50;49.80
11387;DHT22;5748;53.102;8.456;2023-05-27T05:26:39;12.60;49.80
11387;DHT22;5748;53.102;8.456;2023-05-27T05:29:06;13.60;50.80
11387;DHT22;5748;53.102;8.456;2023-05-27T05:31:33;12.80;50.00
11387;DHT22;5748;53.102;8.456;2023-05-27T05:34:01;12.90;50.20
11387;DHT22;5748;53.102;8.456;2023-05-27T05:36:28;14.60;51.60
11387;DHT22;5748;53.102;8.456;2023-05-27T05:38:55;13.10;50.30
11387;DHT22;5748;53.102;8.456;2023-05-27T05:41:22;13.20;50.40
11387;DHT22;5748;53.102;8.456;2023-05-27T05:43:49;13.30;50.60
11387;DHT22;5748;53.102;8.456;2023-05-27T05:46:16;13.40;50.80
11387;DHT22;5748;53.102;8.456;2023-05-27T05:48:43;13.50;50.80
11387;DHT22;5748;53.102;8.456;2023-05-27T05:51:11;13.70;51.00
11387;DHT22;5748;53.102;8.456;2023-05-27T05:53:38;13.80;51.40
11387;DHT22;5748;53.102;8.456;2023-05-27T05:56:05;15.80;52.90
11387;DHT22;5748;53.102;8.456;2023-05-27T05:58:32;14.10;51.40
11387;DHT22;5748;53.102;8.456;2023-05-27T06:00:59;16.70;53.40
11387;DHT22;5748;53.102;8.456;2023-05-27T06:03:27;14.90;52.00
11387;DHT22;5748;53.102;8.456;2023-05-27T06:05:54;14.60;51.60
11387;DHT22;5748;53.102;8.456;2023-05-27T06:08:22;14.80;51.60
11387;DHT22;5748;53.102;8.456;2023-05-27T06:10:49;15.00;51.70
11387;DHT22;5748;53.102;8.456;2023-05-27T06:13:16;15.10;51.60
11387;DHT22;5748;53.102;8.456;2023-05-27T06:15:43;15.30;51.60
11387;DHT22;5748;53.102;8.456;2023-05-27T06:18:10;15.50;51.50
11387;DHT22;5748;53.102;8.456;2023-05-27T06:20:37;15.60;51.40
11387;DHT22;5748;53.102;8.456;2023-05-27T06:23:04;15.70;51.30
11387;DHT22;5748;53.102;8.456;2023-05-27T06:25:33;15.80;51.10
11387;DHT22;5748;53.102;8.456;2023-05-27T06:28:00;15.90;51.10
11387;DHT22;5748;53.102;8.456;2023-05-27T06:30:27;16.00;51.10
11387;DHT22;5748;53.102;8.456;2023-05-27T06:32:54;16.10;51.00
11387;DHT22;5748;53.102;8.456;2023-05-27T06:35:21;16.20;51.00
11387;DHT22;5748;53.102;8.456;2023-05-27T06:37:48;16.30;50.90
11387;DHT22;5748;53.102;8.456;2023-05-27T06:40:15;16.40;50.90
11387;DHT22;5748;53.102;8.456;2023-05-27T06:42:44;16.40;50.90
11387;DHT22;5748;53.102;8.456;2023-05-27T06:45:11;16.40;51.00
11387;DHT22;5748;53.102;8.456;2023-05-27T06:47:38;16.60;51.10
11387;DHT22;5748;53.102;8.456;2023-05-27T06:50:06;16.60;50.90
11387;DHT22;5748;53.102;8.456;2023-05-27T06:52:33;16.70;51.00
11387;DHT22;5748;53.102;8.456;2023-05-27T06:55:00;16.80;51.00
11387;DHT22;5748;53.102;8.456;2023-05-27T06:57:27;16.90;51.00
11387;DHT22;5748;53.102;8.456;2023-05-27T06:59:55;16.90;51.10
11387;DHT22;5748;53.102;8.456;2023-05-27T07:02:22;17.10;51.10
11387;DHT22;5748;53.102;8.456;2023-05-27T07:04:49;18.10;51.70
11387;DHT22;5748;53.102;8.456;2023-05-27T07:07:19;17.30;51.00
11387;DHT22;5748;53.102;8.456;2023-05-27T07:09:46;17.30;50.90
11387;DHT22;5748;53.102;8.456;2023-05-27T07:12:13;17.40;50.90
11387;DHT22;5748;53.102;8.456;2023-05-27T07:14:40;17.50;50.90
11387;DHT22;5748;53.102;8.456;2023-05-27T07:17:08;17.60;51.10
11387;DHT22;5748;53.102;8.456;2023-05-27T07:19:35;17.70;51.20
11387;DHT22;5748;53.102;8.456;2023-05-27T07:22:02;17.90;51.20
11387;DHT22;5748;53.102;8.456;2023-05-27T07:24:29;17.90;51.10
11387;DHT22;5748;53.102;8.456;2023-05-27T07:26:57;18.00;51.20
11387;DHT22;5748;53.102;8.456;2023-05-27T07:29:25;18.10;51.20
11387;DHT22;5748;53.102;8.456;2023-05-27T07:31:52;18.20;51.20
11387;DHT22;5748;53.102;8.456;2023-05-27T07:34:20;18.30;51.20
11387;DHT22;5748;53.102;8.456;2023-05-27T07:36:47;18.40;51.20
11387;DHT22;5748;53.102;8.456;2023-05-27T07:39:14;18.60;51.30
11387;DHT22;5748;53.102;8.456;2023-05-27T07:41:41;18.70;51.30
11387;DHT22;5748;53.102;8.456;2023-05-27T07:44:08;18.80;51.40
11387;DHT22;5748;53.102;8.456;2023-05-27T07:46:35;18.90;51.20
11387;DHT22;5748;53.102;8.456;2023-05-27T07:49:04;19.10;51.20
11387;DHT22;5748;53.102;8.456;2023-05-27T07:51:32;19.10;51.00
11387;DHT22;5748;53.102;8.456;2023-05-27T07:54:01;19.20;50.80
11387;DHT22;5748;53.102;8.456;2023-05-27T07:56:28;19.20;50.70
11387;DHT22;5748;53.102;8.456;2023-05-27T07:58:55;19.30;50.70
11387;DHT22;5748;53.102;8.456;2023-05-27T08:01:22;19.30;50.70
11387;DHT22;5748;53.102;8.456;2023-05-27T08:03:50;19.40;51.00
11387;DHT22;5748;53.102;8.456;2023-05-27T08:06:17;19.50;51.10
11387;DHT22;5748;53.102;8.456;2023-05-27T08:08:45;19.50;51.10
11387;DHT22;5748;53.102;8.456;2023-05-27T08:11:13;19.70;51.50
11387;DHT22;5748;53.102;8.456;2023-05-27T08:13:40;19.70;51.50
11387;DHT22;5748;53.102;8.456;2023-05-27T08:16:07;20.10;51.90
11387;DHT22;5748;53.102;8.456;2023-05-27T08:18:35;20.00;51.80
11387;DHT22;5748;53.102;8.456;2023-05-27T08:21:02;20.10;51.80
11387;DHT22;5748;53.102;8.456;2023-05-27T08:23:30;20.30;51.60
11387;DHT22;5748;53.102;8.456;2023-05-27T08:25:58;20.40;51.50
11387;DHT22;5748;53.102;8.456;2023-05-27T08:28:25;20.60;51.70
11387;DHT22;5748;53.102;8.456;2023-05-27T08:30:52;20.70;51.80
11387;DHT22;5748;53.102;8.456;2023-05-27T08:33:19;20.90;51.90
11387;DHT22;5748;53.102;8.456;2023-05-27T08:35:46;24.00;54.60
11387;DHT22;5748;53.102;8.456;2023-05-27T08:38:13;23.90;54.40
11387;DHT22;5748;53.102;8.456;2023-05-27T08:40:40;21.50;52.30
11387;DHT22;5748;53.102;8.456;2023-05-27T08:43:09;21.60;52.40
11387;DHT22;5748;53.102;8.456;2023-05-27T08:45:36;21.80;52.40
11387;DHT22;5748;53.102;8.456;2023-05-27T08:48:07;22.20;52.60
11387;DHT22;5748;53.102;8.456;2023-05-27T08:50:35;22.30;52.40
11387;DHT22;5748;53.102;8.456;2023-05-27T08:53:03;22.50;52.40
11387;DHT22;5748;53.102;8.456;2023-05-27T08:55:30;22.70;52.50
11387;DHT22;5748;53.102;8.456;2023-05-27T08:57:58;22.90;52.60
11387;DHT22;5748;53.102;8.456;2023-05-27T09:00:27;23.20;52.80
11387;DHT22;5748;53.102;8.456;2023-05-27T09:02:54;23.40;52.70
11387;DHT22;5748;53.102;8.456;2023-05-27T09:05:25;23.60;52.30
11387;DHT22;5748;53.102;8.456;2023-05-27T09:07:52;23.90;52.20
11387;DHT22;5748;53.102;8.456;2023-05-27T09:10:19;24.10;52.10
11387;DHT22;5748;53.102;8.456;2023-05-27T09:12:46;24.30;52.20
11387;DHT22;5748;53.102;8.456;2023-05-27T09:15:13;24.50;52.20
11387;DHT22;5748;53.102;8.456;2023-05-27T09:17:42;24.80;52.20
11387;DHT22;5748;53.102;8.456;2023-05-27T09:20:10;25.00;51.80
11387;DHT22;5748;53.102;8.456;2023-05-27T09:22:39;25.20;51.70
11387;DHT22;5748;53.102;8.456;2023-05-27T09:25:07;25.50;51.80
11387;DHT22;5748;53.102;8.456;2023-05-27T09:27:35;25.70;51.80
11387;DHT22;5748;53.102;8.456;2023-05-27T09:30:09;26.00;51.70
11387;DHT22;5748;53.102;8.456;2023-05-27T09:32:36;26.20;51.10
11387;DHT22;5748;53.102;8.456;2023-05-27T09:35:06;26.50;51.40
11387;DHT22;5748;53.102;8.456;2023-05-27T09:37:33;26.90;50.60
11387;DHT22;5748;53.102;8.456;2023-05-27T09:40:05;27.20;50.90
11387;DHT22;5748;53.102;8.456;2023-05-27T09:42:40;27.50;50.20
11387;DHT22;5748;53.102;8.456;2023-05-27T09:45:10;27.80;49.30
11387;DHT22;5748;53.102;8.456;2023-05-27T09:47:40;28.00;49.40
11387;DHT22;5748;53.102;8.456;2023-05-27T09:50:09;28.20;49.60
11387;DHT22;5748;53.102;8.456;2023-05-27T09:52:40;28.40;49.80
11387;DHT22;5748;53.102;8.456;2023-05-27T09:55:08;28.70;50.30
11387;DHT22;5748;53.102;8.456;2023-05-27T09:57:36;29.10;49.90
11387;DHT22;5748;53.102;8.456;2023-05-27T10:00:05;29.40;48.80
11387;DHT22;5748;53.102;8.456;2023-05-27T10:02:40;29.60;48.70
11387;DHT22;5748;53.102;8.456;2023-05-27T10:05:12;29.90;49.20
11387;DHT22;5748;53.102;8.456;2023-05-27T10:07:41;30.20;49.00
11387;DHT22;5748;53.102;8.456;2023-05-27T10:10:10;30.60;50.00
11387;DHT22;5748;53.102;8.456;2023-05-27T10:12:38;31.20;50.10
11387;DHT22;5748;53.102;8.456;2023-05-27T10:15:07;31.60;49.80
11387;DHT22;5748;53.102;8.456;2023-05-27T10:17:41;32.20;50.00
11387;DHT22;5748;53.102;8.456;2023-05-27T10:20:11;32.70;48.00
11387;DHT22;5748;53.102;8.456;2023-05-27T10:22:42;33.10;47.90
11387;DHT22;5748;53.102;8.456;2023-05-27T10:25:12;33.40;48.10
11387;DHT22;5748;53.102;8.456;2023-05-27T10:27:44;33.80;46.40
11387;DHT22;5748;53.102;8.456;2023-05-27T10:30:12;34.00;45.90
11387;DHT22;5748;53.102;8.456;2023-05-27T10:32:49;34.20;45.80
11387;DHT22;5748;53.102;8.456;2023-05-27T10:35:18;34.40;44.30
11387;DHT22;5748;53.102;8.456;2023-05-27T10:37:46;34.60;45.90
11387;DHT22;5748;53.102;8.456;2023-05-27T10:40:24;34.90;45.60
11387;DHT22;5748;53.102;8.456;2023-05-27T10:42:58;35.20;43.80
11387;DHT22;5748;53.102;8.456;2023-05-27T10:45:31;35.60;45.20
11387;DHT22;5748;53.102;8.456;2023-05-27T10:47:59;36.00;44.60
11387;DHT22;5748;53.102;8.456;2023-05-27T10:50:31;36.30;44.70
11387;DHT22;5748;53.102;8.456;2023-05-27T10:52:59;36.60;43.50
11387;DHT22;5748;53.102;8.456;2023-05-27T10:55:28;36.90;44.20
11387;DHT22;5748;53.102;8.456;2023-05-27T10:57:57;37.20;44.10
11387;DHT22;5748;53.102;8.456;2023-05-27T11:00:26;37.50;43.20
11387;DHT22;5748;53.102;8.456;2023-05-27T11:02:54;37.90;42.40
11387;DHT22;5748;53.102;8.456;2023-05-27T11:05:28;38.20;42.50
11387;DHT22;5748;53.102;8.456;2023-05-27T11:07:59;38.40;41.20
11387;DHT22;5748;53.102;8.456;2023-05-27T11:10:26;38.70;41.30
11387;DHT22;5748;53.102;8.456;2023-05-27T11:12:53;38.90;40.90
11387;DHT22;5748;53.102;8.456;2023-05-27T11:15:20;39.10;40.70
11387;DHT22;5748;53.102;8.456;2023-05-27T11:17:47;39.20;39.90
11387;DHT22;5748;53.102;8.456;2023-05-27T11:20:13;39.50;40.00
11387;DHT22;5748;53.102;8.456;2023-05-27T11:22:49;39.50;39.50
11387;DHT22;5748;53.102;8.456;2023-05-27T11:25:16;39.70;37.90
11387;DHT22;5748;53.102;8.456;2023-05-27T11:27:43;39.80;39.30
11387;DHT22;5748;53.102;8.456;2023-05-27T11:30:11;40.00;38.90
11387;DHT22;5748;53.102;8.456;2023-05-27T11:32:40;40.20;38.40
11387;DHT22;5748;53.102;8.456;2023-05-27T11:35:12;40.30;38.30
11387;DHT22;5748;53.102;8.456;2023-05-27T11:37:40;40.40;36.80
11387;DHT22;5748;53.102;8.456;2023-05-27T11:40:11;40.50;37.60
11387;DHT22;5748;53.102;8.456;2023-05-27T11:42:43;40.50;36.00
11387;DHT22;5748;53.102;8.456;2023-05-27T11:45:15;40.60;36.30
11387;DHT22;5748;53.102;8.456;2023-05-27T11:47:44;40.50;35.10
11387;DHT22;5748;53.102;8.456;2023-05-27T11:50:14;40.40;34.60
11387;DHT22;5748;53.102;8.456;2023-05-27T11:52:53;40.40;35.40
11387;DHT22;5748;53.102;8.456;2023-05-27T11:55:22;40.40;34.60
11387;DHT22;5748;53.102;8.456;2023-05-27T11:57:48;40.40;35.30
11387;DHT22;5748;53.102;8.456;2023-05-27T12:00:16;40.30;35.50
11387;DHT22;5748;53.102;8.456;2023-05-27T12:02:45;40.20;35.60
11387;DHT22;5748;53.102;8.456;2023-05-27T12:05:11;40.20;35.70
11387;DHT22;5748;53.102;8.456;2023-05-27T12:07:38;40.20;34.90
11387;DHT22;5748;53.102;8.456;2023-05-27T12:10:07;40.20;34.70
11387;DHT22;5748;53.102;8.456;2023-05-27T12:12:36;40.00;33.70
11387;DHT22;5748;53.102;8.456;2023-05-27T12:15:05;39.90;33.50
11387;DHT22;5748;53.102;8.456;2023-05-27T12:17:33;39.80;33.70
11387;DHT22;5748;53.102;8.456;2023-05-27T12:20:00;39.70;34.10
11387;DHT22;5748;53.102;8.456;2023-05-27T12:22:26;39.60;33.60
11387;DHT22;5748;53.102;8.456;2023-05-27T12:24:53;39.20;33.00
11387;DHT22;5748;53.102;8.456;2023-05-27T12:27:20;39.00;32.50
11387;DHT22;5748;53.102;8.456;2023-05-27T12:29:49;39.00;32.80
11387;DHT22;5748;53.102;8.456;2023-05-27T12:32:17;38.80;32.50
11387;DHT22;5748;53.102;8.456;2023-05-27T12:34:44;38.40;31.50
11387;DHT22;5748;53.102;8.456;2023-05-27T12:37:11;38.40;32.60
11387;DHT22;5748;53.102;8.456;2023-05-27T12:39:38;38.30;32.80
11387;DHT22;5748;53.102;8.456;2023-05-27T12:42:05;38.10;32.80
11387;DHT22;5748;53.102;8.456;2023-05-27T12:47:00;37.80;32.00
11387;DHT22;5748;53.102;8.456;2023-05-27T12:49:27;37.60;32.50
11387;DHT22;5748;53.102;8.456;2023-05-27T12:51:54;37.50;32.50
11387;DHT22;5748;53.102;8.456;2023-05-27T12:54:21;37.30;32.30
11387;DHT22;5748;53.102;8.456;2023-05-27T12:56:48;37.10;32.30
11387;DHT22;5748;53.102;8.456;2023-05-27T12:59:15;36.90;32.20
11387;DHT22;5748;53.102;8.456;2023-05-27T13:01:42;36.70;32.20
11387;DHT22;5748;53.102;8.456;2023-05-27T13:04:10;36.50;32.30
11387;DHT22;5748;53.102;8.456;2023-05-27T13:06:37;36.30;32.40
11387;DHT22;5748;53.102;8.456;2023-05-27T13:09:04;36.10;32.40
11387;DHT22;5748;53.102;8.456;2023-05-27T13:11:34;35.80;31.90
11387;DHT22;5748;53.102;8.456;2023-05-27T13:14:01;35.60;32.10
11387;DHT22;5748;53.102;8.456;2023-05-27T13:16:28;35.30;31.90
11387;DHT22;5748;53.102;8.456;2023-05-27T13:18:55;35.10;32.00
11387;DHT22;5748;53.102;8.456;2023-05-27T13:21:23;34.90;32.00
11387;DHT22;5748;53.102;8.456;2023-05-27T13:23:52;34.70;31.90
11387;DHT22;5748;53.102;8.456;2023-05-27T13:26:19;34.40;31.80
11387;DHT22;5748;53.102;8.456;2023-05-27T13:28:47;34.20;31.90
11387;DHT22;5748;53.102;8.456;2023-05-27T13:31:14;33.90;32.00
11387;DHT22;5748;53.102;8.456;2023-05-27T13:33:41;33.70;32.00
11387;DHT22;5748;53.102;8.456;2023-05-27T13:36:08;33.80;31.90
11387;DHT22;5748;53.102;8.456;2023-05-27T13:38:36;33.30;31.90
11387;DHT22;5748;53.102;8.456;2023-05-27T13:41:03;33.10;31.80
11387;DHT22;5748;53.102;8.456;2023-05-27T13:43:31;32.90;32.00
11387;DHT22;5748;53.102;8.456;2023-05-27T13:45:58;32.60;31.90
11387;DHT22;5748;53.102;8.456;2023-05-27T13:48:25;32.30;31.50
11387;DHT22;5748;53.102;8.456;2023-05-27T13:50:52;32.20;31.80
11387;DHT22;5748;53.102;8.456;2023-05-27T13:53:18;32.10;32.00
11387;DHT22;5748;53.102;8.456;2023-05-27T13:55:47;31.90;32.00
11387;DHT22;5748;53.102;8.456;2023-05-27T13:58:14;31.50;31.70
11387;DHT22;5748;53.102;8.456;2023-05-27T14:00:42;31.50;32.30
11387;DHT22;5748;53.102;8.456;2023-05-27T14:03:09;31.40;32.00
11387;DHT22;5748;53.102;8.456;2023-05-27T14:05:36;31.20;31.90
11387;DHT22;5748;53.102;8.456;2023-05-27T14:08:03;31.00;31.90
11387;DHT22;5748;53.102;8.456;2023-05-27T14:10:32;30.90;32.20
11387;DHT22;5748;53.102;8.456;2023-05-27T14:13:00;30.60;32.10
11387;DHT22;5748;53.102;8.456;2023-05-27T14:15:28;30.50;32.20
11387;DHT22;5748;53.102;8.456;2023-05-27T14:17:57;30.30;32.20
11387;DHT22;5748;53.102;8.456;2023-05-27T14:20:25;30.10;32.30
11387;DHT22;5748;53.102;8.456;2023-05-27T14:22:52;30.00;32.60
11387;DHT22;5748;53.102;8.456;2023-05-27T14:25:19;29.90;32.60
11387;DHT22;5748;53.102;8.456;2023-05-27T14:27:46;29.70;32.50
11387;DHT22;5748;53.102;8.456;2023-05-27T14:30:15;29.60;32.50
11387;DHT22;5748;53.102;8.456;2023-05-27T14:32:42;29.50;32.50
11387;DHT22;5748;53.102;8.456;2023-05-27T14:35:09;29.40;32.70
11387;DHT22;5748;53.102;8.456;2023-05-27T14:37:36;29.30;32.70
11387;DHT22;5748;53.102;8.456;2023-05-27T14:40:03;29.10;32.70
11387;DHT22;5748;53.102;8.456;2023-05-27T14:42:31;29.00;32.80
11387;DHT22;5748;53.102;8.456;2023-05-27T14:44:58;28.90;32.70
11387;DHT22;5748;53.102;8.456;2023-05-27T14:47:26;28.80;32.80
11387;DHT22;5748;53.102;8.456;2023-05-27T14:49:54;28.70;32.90
11387;DHT22;5748;53.102;8.456;2023-05-27T14:52:21;28.60;32.90
11387;DHT22;5748;53.102;8.456;2023-05-27T14:54:48;28.40;33.00
11387;DHT22;5748;53.102;8.456;2023-05-27T14:57:15;28.30;32.90
11387;DHT22;5748;53.102;8.456;2023-05-27T14:59:42;28.30;33.40
11387;DHT22;5748;53.102;8.456;2023-05-27T15:02:09;28.20;33.30
11387;DHT22;5748;53.102;8.456;2023-05-27T15:04:38;28.10;33.40
11387;DHT22;5748;53.102;8.456;2023-05-27T15:07:05;28.00;33.40
11387;DHT22;5748;53.102;8.456;2023-05-27T15:09:32;28.00;33.50
11387;DHT22;5748;53.102;8.456;2023-05-27T15:11:59;28.00;33.60
11387;DHT22;5748;53.102;8.456;2023-05-27T15:14:26;27.90;33.60
11387;DHT22;5748;53.102;8.456;2023-05-27T15:16:53;27.90;33.60
11387;DHT22;5748;53.102;8.456;2023-05-27T15:19:20;27.80;33.60
11387;DHT22;5748;53.102;8.456;2023-05-27T15:21:48;27.70;33.60
11387;DHT22;5748;53.102;8.456;2023-05-27T15:24:15;27.70;33.60
11387;DHT22;5748;53.102;8.456;2023-05-27T15:26:42;27.60;33.70
11387;DHT22;5748;53.102;8.456;2023-05-27T15:29:09;27.60;33.90
11387;DHT22;5748;53.102;8.456;2023-05-27T15:31:36;27.50;34.00
11387;DHT22;5748;53.102;8.456;2023-05-27T15:34:03;27.50;34.00
11387;DHT22;5748;53.102;8.456;2023-05-27T15:36:30;27.40;34.10
11387;DHT22;5748;53.102;8.456;2023-05-27T15:38:59;27.90;34.40
11387;DHT22;5748;53.102;8.456;2023-05-27T15:41:26;27.30;34.20
11387;DHT22;5748;53.102;8.456;2023-05-27T15:43:53;27.20;34.10
11387;DHT22;5748;53.102;8.456;2023-05-27T15:46:20;27.20;34.20
11387;DHT22;5748;53.102;8.456;2023-05-27T15:48:47;27.10;34.10
11387;DHT22;5748;53.102;8.456;2023-05-27T15:51:14;27.10;34.30
11387;DHT22;5748;53.102;8.456;2023-05-27T15:53:41;27.10;34.40
11387;DHT22;5748;53.102;8.456;2023-05-27T15:56:10;27.10;34.40
11387;DHT22;5748;53.102;8.456;2023-05-27T15:58:37;27.10;34.60
11387;DHT22;5748;53.102;8.456;2023-05-27T16:01:05;27.00;34.60
11387;DHT22;5748;53.102;8.456;2023-05-27T16:03:32;27.00;34.50
11387;DHT22;5748;53.102;8.456;2023-05-27T16:05:59;26.90;34.60
11387;DHT22;5748;53.102;8.456;2023-05-27T16:08:26;26.90;34.30
11387;DHT22;5748;53.102;8.456;2023-05-27T16:10:54;26.80;34.60
11387;DHT22;5748;53.102;8.456;2023-05-27T16:13:23;26.90;34.90
11387;DHT22;5748;53.102;8.456;2023-05-27T16:15:51;26.80;35.00
11387;DHT22;5748;53.102;8.456;2023-05-27T16:18:19;26.70;34.40
11387;DHT22;5748;53.102;8.456;2023-05-27T16:20:46;26.70;34.90
11387;DHT22;5748;53.102;8.456;2023-05-27T16:23:13;26.70;34.90
11387;DHT22;5748;53.102;8.456;2023-05-27T16:25:40;26.70;35.00
11387;DHT22;5748;53.102;8.456;2023-05-27T16:28:07;26.80;34.90
11387;DHT22;5748;53.102;8.456;2023-05-27T16:30:36;26.60;34.80
11387;DHT22;5748;53.102;8.456;2023-05-27T16:33:03;26.60;34.90
11387;DHT22;5748;53.102;8.456;2023-05-27T16:35:30;26.60;35.00
11387;DHT22;5748;53.102;8.456;2023-05-27T16:37:57;27.10;35.40
11387;DHT22;5748;53.102;8.456;2023-05-27T16:40:24;26.40;35.10
11387;DHT22;5748;53.102;8.456;2023-05-27T16:42:51;26.50;35.20
11387;DHT22;5748;53.102;8.456;2023-05-27T16:45:18;26.40;35.20
11387;DHT22;5748;53.102;8.456;2023-05-27T16:47:46;26.40;35.20
11387;DHT22;5748;53.102;8.456;2023-05-27T16:50:13;26.10;35.00
11387;DHT22;5748;53.102;8.456;2023-05-27T16:52:40;26.30;35.10
11387;DHT22;5748;53.102;8.456;2023-05-27T16:55:08;26.40;35.20
11387;DHT22;5748;53.102;8.456;2023-05-27T16:57:35;26.20;34.80
11387;DHT22;5748;53.102;8.456;2023-05-27T17:00:03;26.20;35.20
11387;DHT22;5748;53.102;8.456;2023-05-27T17:02:31;26.20;35.30
11387;DHT22;5748;53.102;8.456;2023-05-27T17:04:59;26.00;35.10
11387;DHT22;5748;53.102;8.456;2023-05-27T17:07:26;26.70;35.80
11387;DHT22;5748;53.102;8.456;2023-05-27T17:09:53;26.10;35.20
11387;DHT22;5748;53.102;8.456;2023-05-27T17:12:20;26.10;35.20
11387;DHT22;5748;53.102;8.456;2023-05-27T17:14:47;26.00;35.30
11387;DHT22;5748;53.102;8.456;2023-05-27T17:17:14;26.00;35.50
11387;DHT22;5748;53.102;8.456;2023-05-27T17:19:41;27.00;36.10
11387;DHT22;5748;53.102;8.456;2023-05-27T17:22:12;25.80;35.30
11387;DHT22;5748;53.102;8.456;2023-05-27T17:24:39;25.80;35.60
11387;DHT22;5748;53.102;8.456;2023-05-27T17:27:07;25.80;36.10
11387;DHT22;5748;53.102;8.456;2023-05-27T17:29:35;25.80;36.50
11387;DHT22;5748;53.102;8.456;2023-05-27T17:32:03;25.70;36.90
11387;DHT22;5748;53.102;8.456;2023-05-27T17:34:30;25.60;36.80
11387;DHT22;5748;53.102;8.456;2023-05-27T17:36:57;25.60;37.00
11387;DHT22;5748;53.102;8.456;2023-05-27T17:39:26;25.50;37.00
11387;DHT22;5748;53.102;8.456;2023-05-27T17:41:53;25.40;37.00
11387;DHT22;5748;53.102;8.456;2023-05-27T17:44:20;25.30;37.00
11387;DHT22;5748;53.102;8.456;2023-05-27T17:46:48;25.30;37.00
11387;DHT22;5748;53.102;8.456;2023-05-27T17:49:15;25.20;37.20
11387;DHT22;5748;53.102;8.456;2023-05-27T17:51:42;25.30;37.60
11387;DHT22;5748;53.102;8.456;2023-05-27T17:54:09;25.90;38.00
11387;DHT22;5748;53.102;8.456;2023-05-27T17:56:37;26.00;38.10
11387;DHT22;5748;53.102;8.456;2023-05-27T17:59:04;24.80;37.60
11387;DHT22;5748;53.102;8.456;2023-05-27T18:01:31;24.80;37.70
11387;DHT22;5748;53.102;8.456;2023-05-27T18:03:58;24.70;37.70
11387;DHT22;5748;53.102;8.456;2023-05-27T18:06:25;24.60;37.70
11387;DHT22;5748;53.102;8.456;2023-05-27T18:08:51;24.70;38.00
11387;DHT22;5748;53.102;8.456;2023-05-27T18:11:18;24.40;37.70
11387;DHT22;5748;53.102;8.456;2023-05-27T18:13:47;24.40;37.80
11387;DHT22;5748;53.102;8.456;2023-05-27T18:16:14;24.30;38.00
11387;DHT22;5748;53.102;8.456;2023-05-27T18:18:40;24.30;38.00
11387;DHT22;5748;53.102;8.456;2023-05-27T18:21:07;24.20;38.00
11387;DHT22;5748;53.102;8.456;2023-05-27T18:23:35;24.10;38.00
11387;DHT22;5748;53.102;8.456;2023-05-27T18:26:02;24.10;38.10
11387;DHT22;5748;53.102;8.456;2023-05-27T18:28:29;23.90;38.10
11387;DHT22;5748;53.102;8.456;2023-05-27T18:30:57;23.90;38.30
11387;DHT22;5748;53.102;8.456;2023-05-27T18:33:24;23.80;38.30
11387;DHT22;5748;53.102;8.456;2023-05-27T18:35:51;23.70;38.20
11387;DHT22;5748;53.102;8.456;2023-05-27T18:38:18;23.70;38.30
11387;DHT22;5748;53.102;8.456;2023-05-27T18:40:45;23.60;38.40
11387;DHT22;5748;53.102;8.456;2023-05-27T18:43:12;23.60;38.70
11387;DHT22;5748;53.102;8.456;2023-05-27T18:45:52;23.50;38.90
11387;DHT22;5748;53.102;8.456;2023-05-27T18:48:22;23.30;38.10
11387;DHT22;5748;53.102;8.456;2023-05-27T18:50:49;23.30;38.90